Flight Track Log - Related Links

Times and Time Zones

All times are in EDT time to prevent confusion due to time zone crossing. See the ASQ5941 flight status page for this flight to view local times or setup timezone preferences in your user account.

Time Position Orientation Groundspeed Altitude Reporting Facility
EDT Latitude Longitude Course Direction KTS MPH feet Rate Location/Type
Fri 07:51:49 PM 41.2619 -75.7750 312° West 199 229 36,000  Level New York Center
Fri 07:52:46 PM 41.2778 -75.8425 287° West 233 268 6,700 -13,846 Descending New York Center
Fri 07:53:00 PM 41.3751 -75.8503 304° West  Level FlightAware Approximate
Fri 07:53:46 PM 41.3467 -75.8392 North 252 290 9,000  Level New York Center
Fri 07:54:00 PM 41.4204 -75.9328 315° West  Level FlightAware Approximate
Fri 07:54:47 PM 41.4406 -75.8353 North 286 329 10,800  Level New York Center
Fri 07:55:00 PM 41.4677 -76.0180 315° West  Level FlightAware Approximate
Fri 07:55:48 PM 41.5228 -75.8608 347° North 293 337 12,100  Level New York Center
Fri 07:56:00 PM 41.5237 -76.0938 312° West  Level FlightAware Approximate
Fri 07:56:48 PM 41.5975 -75.9108 333° Northwest 318 366 12,800  Level New York Center
Fri 07:57:00 PM 41.5767 -76.1734 312° West  Level FlightAware Approximate
Fri 07:57:49 PM 41.6303 -76.0189 292° West 296 341 14,100  Level New York Center
Fri 07:58:46 PM 41.6642 -76.1467 290° West 326 375 15,500 1,385 Climbing New York Center
Fri 07:59:46 PM 41.6964 -76.2658 290° West 341 392 16,800 1,388 Climbing New York Center
Fri 08:00:47 PM 41.7303 -76.3853 291° West 347 399 18,300 1,289 Climbing New York Center
Fri 08:01:47 PM 41.7639 -76.5106 290° West 353 406 19,400 1,091 Climbing New York Center
Fri 08:02:48 PM 41.7994 -76.6361 291° West 353 406 20,500 1,109 Climbing New York Center
Fri 08:03:46 PM 41.8367 -76.7647 291° West 358 412 21,600 1,109 Climbing New York Center
Fri 08:04:47 PM 41.8697 -76.8931 289° West 363 418 22,700 1,033 Climbing New York Center
Fri 08:05:48 PM 41.9031 -77.0103 291° West 363 418 23,700 1,019 Climbing New York Center
Fri 08:06:33 PM 41.9306 -77.1136 290° West 363 418 24,500 1,143 Climbing Cleveland Center
Fri 08:07:33 PM 41.9678 -77.2428 291° West 387 445 25,700 1,100 Climbing Cleveland Center
Fri 08:08:33 PM 42.0028 -77.3781 289° West 387 445 26,700 1,050 Climbing Cleveland Center
Fri 08:09:33 PM 42.0378 -77.5078 290° West 382 440 27,800 1,050 Climbing Cleveland Center
Fri 08:10:33 PM 42.0722 -77.6375 290° West 382 440 28,800 600 Climbing Cleveland Center
Fri 08:11:33 PM 42.1092 -77.7758 290° West 382 440 29,000 100 Climbing Cleveland Center
Fri 08:12:33 PM 42.1481 -77.9197 290° West 398 458 29,000  Level Cleveland Center
Fri 08:13:33 PM 42.1892 -78.0806 289° West 411 473 29,000  Level Cleveland Center
Fri 08:14:33 PM 42.2256 -78.2250 289° West 423 487 29,000  Level Cleveland Center
Fri 08:15:33 PM 42.2639 -78.3722 289° West 423 487 29,000  Level Cleveland Center
Fri 08:16:33 PM 42.3067 -78.5392 289° West 423 487 29,000  Level Cleveland Center
Fri 08:17:33 PM 42.3447 -78.6925 289° West 423 487 29,000 450 Level Cleveland Center
Fri 08:18:33 PM 42.3847 -78.8431 290° West 423 487 29,900 700 Climbing Cleveland Center
Fri 08:19:33 PM 42.4178 -78.9856 287° West 417 480 30,400 500 Climbing Cleveland Center
Fri 08:20:33 PM 42.4594 -79.1367 291° West 417 480 30,900 550 Climbing Cleveland Center
Fri 08:21:33 PM 42.4925 -79.2908 286° West 422 486 31,500 600 Climbing Cleveland Center
Fri 08:22:33 PM 42.5003 -79.4369 274° West 411 473 32,100 650 Climbing Cleveland Center
Fri 08:23:33 PM 42.5081 -79.5833 274° West 405 466 32,800 650 Climbing Cleveland Center
Fri 08:24:33 PM 42.5133 -79.7269 273° West 400 460 33,400 550 Climbing Cleveland Center
Fri 08:25:33 PM 42.5225 -79.8564 276° West 372 428 33,900 100 Climbing Cleveland Center
Fri 08:26:33 PM 42.5272 -79.9633 273° West 363 418 33,600 -750 Descending Cleveland Center
Fri 08:27:33 PM 42.5303 -80.1211 272° West 374 430 32,400 -1,400 Descending Cleveland Center
Fri 08:28:33 PM 42.5347 -80.2675 272° West 385 443 30,800 -1,000 Descending Cleveland Center
Fri 08:29:33 PM 42.5433 -80.4114 275° West 385 443 30,400 -400 Descending Cleveland Center
Fri 08:30:33 PM 42.5478 -80.5436 273° West 374 430 30,000 -200 Descending Cleveland Center
Fri 08:31:33 PM 42.5539 -80.6931 273° West 366 421 30,000  Level Cleveland Center
Fri 08:32:33 PM 42.5600 -80.8283 274° West 366 421 30,000  Level Cleveland Center
Fri 08:33:33 PM 42.5639 -80.9667 272° West 361 415 30,000  Level Cleveland Center
Fri 08:34:33 PM 42.5675 -81.0992 272° West 366 421 30,000  Level Cleveland Center
Fri 08:35:33 PM 42.5731 -81.2400 273° West 366 421 30,000  Level Cleveland Center
Fri 08:36:33 PM 42.5764 -81.3756 272° West 366 421 30,000  Level Cleveland Center
Fri 08:37:33 PM 42.5939 -81.5139 280° West 366 421 30,000  Level Cleveland Center
Fri 08:38:33 PM 42.6178 -81.6553 283° West 376 433 30,000  Level Cleveland Center
Fri 08:39:33 PM 42.6353 -81.7825 281° West 376 433 30,000  Level Cleveland Center
Fri 08:40:33 PM 42.6483 -81.9156 278° West 371 427 30,000  Level Cleveland Center
Fri 08:41:33 PM 42.6614 -82.0569 277° West 371 427 30,000  Level Cleveland Center
Fri 08:42:33 PM 42.6761 -82.1986 278° West 371 427 30,000  Level Cleveland Center
Fri 08:43:33 PM 42.7386 -82.3358 302° West 394 453 30,000  Level Cleveland Center
Fri 08:44:33 PM 42.8511 -82.4664 320° Northwest 431 496 30,000  Level Cleveland Center
Fri 08:45:33 PM 42.9450 -82.5883 316° Northwest 446 513 30,000  Level Cleveland Center
Fri 08:46:33 PM 43.0408 -82.7022 319° Northwest 456 525 30,000  Level Cleveland Center
Fri 08:47:33 PM 43.1347 -82.8164 318° Northwest 461 531 30,000  Level Cleveland Center
Fri 08:48:33 PM 43.2281 -82.9367 317° Northwest 461 531 30,000  Level Cleveland Center
Fri 08:49:33 PM 43.3069 -83.0594 311° West 452 520 30,000  Level Cleveland Center
Fri 08:50:33 PM 43.3225 -83.2000 279° West 389 448 30,000  Level Cleveland Center
Fri 08:51:33 PM 43.2681 -83.3061 235° Southwest 309 356 30,000  Level Cleveland Center
Fri 08:52:33 PM 43.1892 -83.3822 215° Southwest 315 362 30,000  Level Cleveland Center
Fri 08:53:33 PM 43.1283 -83.4764 229° Southwest 323 372 30,000  Level Cleveland Center
Fri 08:54:33 PM 43.0981 -83.6056 252° West 346 398 30,000  Level Cleveland Center
Fri 08:55:33 PM 43.0692 -83.7436 254° West 363 418 30,000  Level Cleveland Center
Fri 08:56:33 PM 43.0383 -83.8756 252° West 374 430 30,000  Level Cleveland Center
Fri 08:57:33 PM 43.0114 -84.0161 255° West 374 430 30,000  Level Cleveland Center
Fri 08:58:33 PM 42.9781 -84.1533 252° West 374 430 30,000  Level Cleveland Center
Fri 09:00:05 PM 42.9364 -84.3506 254° West 381 438 30,000  Level Chicago Center
Fri 09:01:07 PM 42.9056 -84.4875 253° West 380 437 30,000  Level Chicago Center
Fri 09:02:09 PM 42.8778 -84.6267 255° West 380 437 30,000  Level Chicago Center
Fri 09:03:11 PM 42.8647 -84.7728 263° West 386 444 30,000  Level Chicago Center
Fri 09:04:12 PM 42.8464 -84.9461 262° West 387 445 30,000  Level Chicago Center
Fri 09:05:14 PM 42.8308 -85.0919 262° West 389 448 30,000  Level Chicago Center
Fri 09:06:16 PM 42.8150 -85.2392 262° West 392 451 30,000 -97 Level Chicago Center
Fri 09:07:18 PM 42.7994 -85.3853 262° West 390 449 29,800 -829 Descending Chicago Center
Fri 09:08:19 PM 42.7811 -85.5294 260° West 386 444 28,300 -1,610 Descending Chicago Center
Fri 09:09:21 PM 42.7553 -85.6758 257° West 393 452 26,500 -1,839 Descending Chicago Center
Fri 09:10:23 PM 42.7283 -85.8200 256° West 393 452 24,500 -1,984 Descending Chicago Center
Fri 09:11:25 PM 42.7028 -85.9617 256° West 386 444 22,400 -1,951 Descending Chicago Center
Fri 09:12:26 PM 42.6714 -86.1325 256° West 380 437 20,500 -1,171 Descending Chicago Center
Fri 09:13:28 PM 42.6467 -86.2675 256° West 377 434 20,000 -629 Descending Chicago Center
Fri 09:14:30 PM 42.6211 -86.4033 256° West 371 427 19,200 -1,512 Descending Chicago Center
Fri 09:15:31 PM 42.5961 -86.5356 256° West 364 419 16,900 -2,244 Descending Chicago Center
Fri 09:16:33 PM 42.5708 -86.6647 255° West 356 410 14,600 -2,081 Descending Chicago Center
Fri 09:17:35 PM 42.5444 -86.7897 254° West 347 399 12,600 -1,610 Descending Chicago Center
Fri 09:18:36 PM 42.5122 -86.9031 249° West 325 374 11,300 -1,073 Descending Chicago Center
Fri 09:19:38 PM 42.4850 -87.0075 251° West 298 343 10,400 -823 Descending Chicago Center
Fri 09:20:40 PM 42.4547 -87.1119 249° West 252 290 9,600 -919 Descending Chicago Center
Fri 09:21:42 PM 42.4306 -87.1969 249° West 245 282 8,500 -1,024 Descending Chicago Center
Fri 09:22:43 PM 42.3958 -87.2703 237° Southwest 240 276 7,500 -976 Descending Chicago Center
Fri 09:23:45 PM 42.3272 -87.3019 199° South 255 293 6,500 -823 Descending Chicago Center
Fri 09:24:47 PM 42.2519 -87.3381 200° South 254 292 5,800 -634 Descending Chicago Center
Fri 09:25:48 PM 42.1844 -87.3728 201° Southwest 258 297 5,200 -585 Descending Chicago Center
Fri 09:26:50 PM 42.1217 -87.4067 202° Southwest 249 287 4,600 -556 Descending Chicago Center
Fri 09:27:36 PM 42.0667 -87.4333 200° South 254 292 4,200 -340 Descending Chicago TRACON
Fri 09:28:36 PM 42.0167 -87.4667 206° Southwest 221 254 4,000 -100 Descending Chicago TRACON
Fri 09:29:36 PM 42.0000 -87.5333 251° West 183 211 4,000  Level Chicago TRACON
Fri 09:30:36 PM 42.0000 -87.6000 270° West 160 184 4,000  Level Chicago TRACON
Fri 09:31:37 PM 42.0000 -87.6667 270° West 160 184 4,000 -331 Level Chicago TRACON
Fri 09:32:43 PM 42.0000 -87.7333 270° West 158 182 3,300 -636 Descending Chicago TRACON

Login

Don't have an account? Register now (free) for customized features, flight alerts, and more!